createdAt,value
2018-09-10T00:00:31.609Z,87.57
2018-09-10T00:01:38.449Z,87.60
2018-09-10T00:02:45.812Z,87.65
2018-09-10T00:03:52.289Z,88.19
2018-09-10T00:04:58.648Z,88.34
2018-09-10T00:06:06.060Z,88.12
2018-09-10T00:07:12.232Z,87.95
2018-09-10T00:08:18.510Z,88.39
2018-09-10T00:09:25.712Z,88.77
2018-09-10T00:10:32.077Z,88.95
2018-09-10T00:11:38.023Z,89.06
2018-09-10T00:12:44.712Z,89.24
2018-09-10T00:13:52.408Z,89.14
2018-09-10T00:14:59.083Z,89.87
2018-09-10T00:16:05.470Z,90.76
2018-09-10T00:17:11.766Z,90.03
2018-09-10T00:18:18.192Z,90.41
2018-09-10T00:19:24.603Z,90.80
2018-09-10T00:20:30.947Z,91.19
2018-09-10T00:21:37.320Z,90.79
2018-09-10T00:22:43.727Z,90.76
2018-09-10T00:23:49.785Z,90.03
2018-09-10T00:24:56.260Z,90.69
2018-09-10T00:26:02.665Z,90.17
2018-09-10T00:27:08.986Z,90.07
2018-09-10T00:28:15.423Z,90.45
2018-09-10T00:29:21.812Z,90.88
2018-09-10T00:30:28.234Z,91.91
2018-09-10T00:31:34.540Z,92.38
2018-09-10T00:32:40.886Z,92.19
2018-09-10T00:33:47.274Z,91.80
2018-09-10T00:34:54.721Z,92.02
2018-09-10T00:36:00.675Z,92.05
2018-09-10T00:37:06.392Z,92.33
2018-09-10T00:38:12.772Z,92.43
2018-09-10T00:39:19.119Z,93.62
2018-09-10T00:40:25.547Z,93.97
2018-09-10T00:41:31.881Z,92.53
2018-09-10T00:42:38.072Z,92.51
2018-09-10T00:43:44.367Z,92.75
2018-09-10T00:44:50.746Z,93.33
2018-09-10T00:45:58.166Z,93.73
2018-09-10T00:47:04.246Z,93.10
2018-09-10T00:48:10.791Z,92.55
2018-09-10T00:49:17.192Z,92.56
2018-09-10T00:50:23.426Z,92.09
2018-09-10T00:51:29.786Z,93.47
2018-09-10T00:52:36.212Z,93.08
2018-09-10T00:53:42.250Z,92.81
2018-09-10T00:54:48.635Z,93.26
2018-09-10T00:55:54.884Z,93.17
2018-09-10T00:57:01.252Z,93.11
2018-09-10T00:58:07.388Z,93.30
2018-09-10T00:59:13.487Z,94.28
2018-09-10T01:00:19.885Z,95.26
2018-09-10T01:01:26.351Z,94.83
2018-09-10T01:02:32.528Z,93.76
2018-09-10T01:03:38.920Z,93.33
2018-09-10T01:04:45.321Z,93.60
2018-09-10T01:05:51.632Z,93.49
2018-09-10T01:06:58.090Z,94.70
2018-09-10T01:08:03.919Z,94.76
2018-09-10T01:09:09.693Z,94.87
2018-09-10T01:10:15.962Z,94.56
2018-09-10T01:11:22.185Z,94.77
2018-09-10T01:12:28.591Z,94.28
2018-09-10T01:13:35.008Z,94.08
2018-09-10T01:14:41.425Z,93.55
2018-09-10T01:15:47.874Z,93.76
2018-09-10T01:16:54.137Z,94.20
2018-09-10T01:18:00.272Z,94.03
2018-09-10T01:19:06.352Z,94.10
2018-09-10T01:20:12.774Z,94.64
2018-09-10T01:21:18.908Z,94.65
2018-09-10T01:22:25.303Z,93.78
2018-09-10T01:23:31.604Z,93.85
2018-09-10T01:24:38.013Z,93.77
2018-09-10T01:25:44.436Z,94.71
2018-09-10T01:26:50.775Z,95.24
2018-09-10T01:27:56.683Z,94.90
2018-09-10T01:29:02.913Z,94.36
2018-09-10T01:30:08.698Z,94.12
2018-09-10T01:31:14.992Z,94.18
2018-09-10T01:32:21.293Z,94.50
2018-09-10T01:33:27.976Z,95.10
2018-09-10T01:36:05.945Z,97.56
2018-09-10T01:37:11.976Z,97.27
2018-09-10T01:38:17.983Z,96.87
2018-09-10T01:39:24.441Z,96.83
2018-09-10T01:40:30.557Z,96.69
2018-09-10T01:41:36.971Z,96.56
2018-09-10T01:42:43.256Z,96.95
2018-09-10T01:43:49.596Z,96.61
2018-09-10T01:44:55.880Z,96.47
2018-09-10T01:46:02.229Z,96.41
2018-09-10T01:47:08.503Z,96.67
2018-09-10T01:48:14.564Z,96.51
2018-09-10T01:49:20.918Z,96.44
2018-09-10T01:50:26.911Z,96.68
2018-09-10T01:51:33.391Z,96.85
2018-09-10T01:52:40.084Z,97.35
2018-09-10T01:53:46.514Z,97.65
2018-09-10T01:54:52.908Z,97.22
2018-09-10T01:55:59.275Z,97.11
2018-09-10T01:57:04.748Z,97.24
2018-09-10T01:58:11.225Z,97.33
2018-09-10T01:59:17.565Z,97.05
2018-09-10T02:00:24.534Z,96.66
2018-09-10T02:01:31.013Z,96.58
2018-09-10T02:02:37.413Z,96.68
2018-09-10T02:03:43.828Z,97.41
2018-09-10T02:04:50.216Z,97.96
2018-09-10T02:05:56.323Z,98.50
2018-09-10T02:07:02.463Z,99.69
2018-09-10T02:08:08.728Z,99.91
2018-09-10T02:09:15.790Z,99.71
2018-09-10T02:10:22.246Z,98.54
2018-09-10T02:11:28.931Z,98.68
2018-09-10T02:12:35.336Z,98.93
2018-09-10T02:13:41.624Z,98.44
2018-09-10T02:14:47.984Z,98.12
2018-09-10T02:15:54.377Z,98.09
2018-09-10T02:17:00.720Z,98.47
2018-09-10T02:18:06.638Z,99.15
2018-09-10T02:19:13.115Z,98.56
2018-09-10T02:20:19.382Z,98.54
2018-09-10T02:21:25.684Z,98.21
2018-09-10T02:22:32.029Z,97.93
2018-09-10T02:23:38.340Z,98.54
2018-09-10T02:24:45.676Z,98.12
2018-09-10T02:25:52.300Z,97.88
2018-09-10T02:26:58.743Z,97.56
2018-09-10T02:28:04.668Z,97.33
2018-09-10T02:29:11.191Z,97.36
2018-09-10T02:30:17.861Z,97.32
2018-09-10T02:31:24.209Z,96.66
2018-09-10T02:32:30.600Z,96.43
2018-09-10T02:33:36.930Z,96.46
2018-09-10T02:34:43.284Z,96.27
2018-09-10T02:35:50.321Z,96.29
2018-09-10T02:36:56.740Z,96.48
2018-09-10T02:38:03.157Z,96.10
2018-09-10T02:39:09.224Z,96.28
2018-09-10T02:40:15.688Z,96.04
2018-09-10T02:41:21.780Z,96.19
2018-09-10T02:42:28.124Z,96.24
2018-09-10T02:43:34.531Z,96.34
2018-09-10T02:44:43.401Z,96.53
2018-09-10T02:45:49.592Z,96.88
2018-09-10T02:46:56.652Z,96.65
2018-09-10T02:48:03.027Z,96.52
2018-09-10T02:49:09.441Z,96.48
2018-09-10T02:50:16.772Z,95.90
2018-09-10T02:51:22.778Z,96.07
2018-09-10T02:52:28.933Z,96.36
2018-09-10T02:53:35.191Z,96.45
2018-09-10T02:54:41.626Z,96.55
2018-09-10T02:55:48.029Z,97.00
2018-09-10T02:56:54.479Z,97.13
2018-09-10T02:58:05.592Z,97.65
2018-09-10T02:59:12.072Z,97.38
2018-09-10T03:00:17.498Z,96.95
2018-09-10T03:01:23.853Z,97.37
2018-09-10T03:02:30.246Z,97.09
2018-09-10T03:03:35.761Z,96.97
2018-09-10T03:04:42.016Z,96.59
2018-09-10T03:05:48.879Z,96.34
2018-09-10T03:06:55.366Z,95.85
2018-09-10T03:08:01.798Z,96.33
2018-09-10T03:09:07.896Z,97.56
2018-09-10T03:10:15.223Z,97.61
2018-09-10T03:11:21.520Z,98.02
2018-09-10T03:12:27.532Z,98.25
2018-09-10T03:13:33.924Z,98.40
2018-09-10T03:14:40.299Z,98.36
2018-09-10T03:15:47.695Z,98.43
2018-09-10T03:16:53.908Z,97.88
2018-09-10T03:18:00.280Z,97.93
2018-09-10T03:19:06.644Z,98.12
2018-09-10T03:20:12.933Z,97.79
2018-09-10T03:21:19.034Z,97.47
2018-09-10T03:22:25.492Z,97.75
2018-09-10T03:23:31.539Z,97.72
2018-09-10T03:24:37.436Z,97.43
2018-09-10T03:25:43.728Z,97.36
2018-09-10T03:26:50.113Z,97.04
2018-09-10T03:27:56.437Z,97.14
2018-09-10T03:29:02.728Z,97.01
2018-09-10T03:30:08.357Z,97.11
2018-09-10T03:31:14.755Z,97.13
2018-09-10T03:32:21.972Z,96.75
2018-09-10T03:33:28.340Z,96.38
2018-09-10T03:34:34.889Z,96.14
2018-09-10T03:35:41.325Z,96.84
2018-09-10T03:36:47.737Z,97.37
2018-09-10T03:37:54.182Z,97.49
2018-09-10T03:39:00.564Z,97.64
2018-09-10T03:40:06.315Z,97.56
2018-09-10T03:41:12.723Z,97.22
2018-09-10T03:42:19.137Z,97.14
2018-09-10T03:43:25.523Z,97.77
2018-09-10T03:44:31.949Z,98.51
2018-09-10T03:45:38.317Z,98.55
2018-09-10T03:46:44.750Z,97.83
2018-09-10T03:47:51.241Z,97.53
2018-09-10T03:48:58.169Z,98.11
2018-09-10T03:50:04.217Z,98.74
2018-09-10T03:51:10.515Z,98.50
2018-09-10T03:52:16.898Z,98.89
2018-09-10T03:53:23.720Z,98.93
2018-09-10T03:54:30.155Z,98.94
2018-09-10T03:55:36.567Z,99.42
2018-09-10T03:56:42.971Z,99.81
2018-09-10T03:57:49.285Z,99.82
2018-09-10T03:58:55.658Z,99.54
2018-09-10T04:00:01.981Z,99.81
2018-09-10T04:01:08.118Z,99.65
2018-09-10T04:02:14.351Z,99.93
2018-09-10T04:03:20.676Z,100.00
2018-09-10T04:04:27.093Z,99.78
2018-09-10T04:05:33.347Z,99.91
2018-09-10T04:06:39.813Z,100.00
2018-09-10T04:07:46.136Z,100.00
2018-09-10T04:08:52.558Z,100.00
2018-09-10T04:09:58.958Z,100.00
2018-09-10T04:11:06.300Z,99.95
2018-09-10T04:12:13.266Z,100.00
2018-09-10T04:13:19.781Z,100.00
2018-09-10T04:14:26.150Z,100.00
2018-09-10T04:15:32.537Z,100.00
2018-09-10T04:16:38.825Z,99.79
2018-09-10T04:17:47.035Z,100.00
2018-09-10T04:18:53.327Z,99.91
2018-09-10T04:19:59.428Z,99.13
2018-09-10T04:21:05.590Z,99.19
2018-09-10T04:22:15.038Z,100.00
2018-09-10T04:23:21.416Z,100.00
2018-09-10T04:24:27.837Z,100.00
2018-09-10T04:25:34.242Z,100.00
2018-09-10T04:26:40.554Z,100.00
2018-09-10T04:27:46.877Z,100.00
2018-09-10T04:28:53.188Z,100.00
2018-09-10T04:29:59.618Z,100.00
2018-09-10T04:31:06.500Z,100.00
2018-09-10T04:32:12.785Z,100.00
2018-09-10T04:33:19.049Z,100.00
2018-09-10T04:34:25.485Z,100.00
2018-09-10T04:35:31.922Z,100.00
2018-09-10T04:36:38.321Z,100.00
2018-09-10T04:37:44.630Z,99.76
2018-09-10T04:38:51.023Z,99.79
2018-09-10T04:39:57.452Z,99.38
2018-09-10T04:41:03.398Z,99.59
2018-09-10T04:42:09.856Z,99.52
2018-09-10T04:43:16.304Z,99.19
2018-09-10T04:44:22.196Z,98.56
2018-09-10T04:45:28.572Z,98.11
2018-09-10T04:46:34.926Z,97.51
2018-09-10T04:47:41.301Z,97.43
2018-09-10T04:48:48.165Z,97.52
2018-09-10T04:49:54.181Z,97.30
2018-09-10T04:51:00.570Z,99.00
2018-09-10T04:52:07.326Z,99.66
2018-09-10T04:53:13.689Z,100.00
2018-09-10T04:54:20.124Z,100.00
2018-09-10T04:55:26.215Z,100.00
2018-09-10T04:56:32.613Z,100.00
2018-09-10T04:57:38.749Z,100.00
2018-09-10T04:58:45.120Z,100.00
2018-09-10T04:59:51.441Z,100.00
2018-09-10T05:00:57.555Z,100.00
2018-09-10T05:02:04.714Z,100.00
2018-09-10T05:03:11.127Z,100.00
2018-09-10T05:04:17.465Z,100.00
2018-09-10T05:05:24.060Z,100.00
2018-09-10T05:06:30.480Z,100.00
2018-09-10T05:07:36.749Z,100.00
2018-09-10T05:08:43.632Z,100.00
2018-09-10T05:09:50.074Z,100.00
2018-09-10T05:10:56.704Z,99.64
2018-09-10T05:12:03.115Z,99.45
2018-09-10T05:13:09.516Z,99.09
2018-09-10T05:14:15.976Z,98.70
2018-09-10T05:15:21.931Z,98.91
2018-09-10T05:16:29.002Z,98.93
2018-09-10T05:17:35.400Z,99.00
2018-09-10T05:18:41.871Z,99.16
2018-09-10T05:19:48.240Z,99.85
2018-09-10T05:20:54.541Z,99.97
2018-09-10T05:22:00.760Z,100.00
2018-09-10T05:23:07.270Z,99.99
2018-09-10T05:24:13.731Z,100.00
2018-09-10T05:25:19.966Z,100.00
2018-09-10T05:26:26.433Z,100.00
2018-09-10T05:27:32.821Z,100.00
2018-09-10T05:28:39.423Z,99.97
2018-09-10T05:29:46.214Z,99.76
2018-09-10T05:30:52.573Z,99.90
2018-09-10T05:31:59.328Z,99.89
2018-09-10T05:33:05.761Z,100.00
2018-09-10T05:34:12.037Z,100.00
2018-09-10T05:35:18.652Z,100.00
2018-09-10T05:36:25.109Z,100.00
2018-09-10T05:37:31.473Z,99.95
2018-09-10T05:38:37.812Z,99.94
2018-09-10T05:39:44.785Z,99.66
2018-09-10T05:40:51.198Z,99.44
2018-09-10T05:41:57.680Z,99.64
2018-09-10T05:43:04.129Z,100.00
2018-09-10T05:44:10.586Z,100.00
2018-09-10T05:45:16.752Z,99.99
2018-09-10T05:46:23.228Z,99.20
2018-09-10T05:47:29.562Z,98.73
2018-09-10T05:48:36.117Z,98.94
2018-09-10T05:49:42.533Z,98.91
2018-09-10T05:50:48.652Z,98.78
2018-09-10T05:51:54.984Z,98.59
2018-09-10T05:53:01.405Z,99.16
2018-09-10T05:54:08.278Z,99.22
2018-09-10T05:55:14.847Z,99.06
2018-09-10T05:56:21.179Z,99.09
2018-09-10T05:57:27.481Z,99.54
2018-09-10T05:58:34.880Z,99.77
2018-09-10T05:59:41.434Z,99.58
2018-09-10T06:00:47.845Z,100.00
2018-09-10T06:01:54.082Z,100.00
2018-09-10T06:03:00.772Z,100.00
2018-09-10T06:04:07.177Z,100.00
2018-09-10T06:05:13.505Z,99.97
2018-09-10T06:06:19.600Z,100.00
2018-09-10T06:07:25.935Z,100.00
2018-09-10T06:08:32.246Z,100.00
2018-09-10T06:09:38.514Z,98.88
2018-09-10T06:10:44.858Z,98.52
2018-09-10T06:11:51.173Z,98.12
2018-09-10T06:12:57.910Z,97.93
2018-09-10T06:14:04.128Z,98.79
2018-09-10T06:15:10.548Z,97.57
2018-09-10T06:16:17.628Z,97.72
2018-09-10T06:17:24.263Z,97.32
2018-09-10T06:18:30.546Z,96.96
2018-09-10T06:19:36.852Z,96.35
2018-09-10T06:20:43.162Z,96.06
2018-09-10T06:21:49.221Z,93.42
2018-09-10T06:22:55.607Z,92.06
2018-09-10T06:24:01.903Z,91.79
2018-09-10T06:25:08.365Z,91.46
2018-09-10T06:26:14.500Z,90.73
2018-09-10T06:27:20.973Z,90.14
2018-09-10T06:28:27.353Z,88.78
2018-09-10T06:29:33.764Z,87.75
2018-09-10T06:30:40.123Z,87.94
2018-09-10T06:31:46.518Z,88.45
2018-09-10T06:32:52.957Z,88.16
2018-09-10T06:33:58.994Z,88.46
2018-09-10T06:35:05.641Z,87.07
2018-09-10T06:36:12.095Z,87.05
2018-09-10T06:37:18.545Z,87.01
2018-09-10T06:38:25.317Z,87.04
2018-09-10T06:39:31.719Z,85.85
2018-09-10T06:40:38.006Z,85.66
2018-09-10T06:41:44.429Z,85.06
2018-09-10T06:42:50.787Z,84.85
2018-09-10T06:43:57.151Z,85.22
2018-09-10T06:45:04.310Z,84.64
2018-09-10T06:46:10.696Z,84.02
2018-09-10T06:47:17.120Z,83.64
2018-09-10T06:48:23.558Z,83.95
2018-09-10T06:49:29.848Z,84.12
2018-09-10T06:50:36.241Z,82.57
2018-09-10T06:51:42.665Z,81.81
2018-09-10T06:52:49.005Z,82.15
2018-09-10T06:53:55.283Z,81.91
2018-09-10T06:55:01.718Z,82.22
2018-09-10T06:56:07.320Z,81.84
2018-09-10T06:57:13.376Z,80.58
2018-09-10T06:58:19.849Z,79.22
2018-09-10T06:59:26.121Z,78.46
2018-09-10T07:00:32.510Z,78.03
2018-09-10T07:01:38.966Z,76.75
2018-09-10T07:02:45.275Z,76.64
2018-09-10T07:03:52.042Z,76.15
2018-09-10T07:04:58.397Z,76.24
2018-09-10T07:06:04.748Z,75.34
2018-09-10T07:07:11.133Z,74.38
2018-09-10T07:08:17.581Z,74.66
2018-09-10T07:09:23.884Z,74.42
2018-09-10T07:10:30.053Z,74.39
2018-09-10T07:11:36.529Z,74.33
2018-09-10T07:12:42.951Z,73.11
2018-09-10T07:13:49.634Z,73.50
2018-09-10T07:14:55.916Z,73.42
2018-09-10T07:16:02.275Z,73.19
2018-09-10T07:17:08.643Z,72.87
2018-09-10T07:18:15.100Z,71.80
2018-09-10T07:19:21.349Z,72.58
2018-09-10T07:20:27.493Z,72.82
2018-09-10T07:21:34.040Z,73.02
2018-09-10T07:22:40.449Z,72.67
2018-09-10T07:23:47.193Z,72.51
2018-09-10T07:24:53.469Z,74.58
2018-09-10T07:26:00.079Z,73.27
2018-09-10T07:27:06.129Z,73.20
2018-09-10T07:28:13.112Z,71.55
2018-09-10T07:29:19.519Z,71.98
2018-09-10T07:30:25.820Z,71.80
2018-09-10T07:31:32.213Z,71.52
2018-09-10T07:32:38.514Z,71.48
2018-09-10T07:33:44.919Z,69.75
2018-09-10T07:34:51.285Z,69.31
2018-09-10T07:35:57.421Z,69.59
2018-09-10T07:37:03.721Z,68.03
2018-09-10T07:38:10.062Z,68.95
2018-09-10T07:39:16.365Z,68.96
2018-09-10T07:40:22.761Z,69.09
2018-09-10T07:41:29.025Z,69.88
2018-09-10T07:42:35.354Z,69.60
2018-09-10T07:43:41.515Z,67.93
2018-09-10T07:44:47.580Z,68.26
2018-09-10T07:45:53.883Z,66.65
2018-09-10T07:46:59.797Z,66.91
2018-09-10T07:48:06.989Z,68.77
2018-09-10T07:49:13.351Z,69.03
2018-09-10T07:50:19.665Z,69.75
2018-09-10T07:51:25.916Z,69.38
2018-09-10T07:52:32.276Z,67.88
2018-09-10T07:53:38.617Z,68.00
2018-09-10T07:54:44.906Z,68.55
2018-09-10T07:55:51.319Z,67.68
2018-09-10T07:56:57.644Z,67.91
2018-09-10T07:58:04.023Z,66.87
2018-09-10T07:59:10.431Z,66.31
2018-09-10T08:00:16.874Z,66.68
2018-09-10T08:01:23.217Z,66.95
2018-09-10T08:02:29.441Z,66.85
2018-09-10T08:03:35.843Z,66.20
2018-09-10T08:04:41.797Z,66.39
2018-09-10T08:05:48.213Z,65.78
2018-09-10T08:06:54.208Z,65.04
2018-09-10T08:08:00.238Z,64.51
2018-09-10T08:09:05.686Z,64.27
2018-09-10T08:10:12.247Z,64.91
2018-09-10T08:11:18.671Z,63.75
2018-09-10T08:12:25.045Z,62.33
2018-09-10T08:13:31.317Z,63.07
2018-09-10T08:14:37.673Z,61.75
2018-09-10T08:15:44.021Z,62.54
2018-09-10T08:16:50.129Z,62.76
2018-09-10T08:17:56.428Z,61.90
2018-09-10T08:19:02.765Z,61.42
2018-09-10T08:20:08.369Z,61.84
2018-09-10T08:21:14.428Z,61.79
2018-09-10T08:22:20.873Z,60.92
2018-09-10T08:23:27.203Z,59.60
2018-09-10T08:24:33.553Z,58.92
2018-09-10T08:25:40.005Z,58.50
2018-09-10T08:26:46.320Z,58.14
2018-09-10T08:27:52.624Z,57.96
2018-09-10T08:28:58.975Z,58.46
2018-09-10T08:30:26.097Z,58.12
2018-09-10T08:31:32.521Z,57.45
2018-09-10T08:32:38.753Z,56.42
2018-09-10T08:33:45.009Z,56.72
2018-09-10T08:34:50.881Z,56.39
2018-09-10T08:35:57.168Z,55.41
2018-09-10T08:37:03.585Z,55.31
2018-09-10T08:38:09.807Z,54.90
2018-09-10T08:39:16.070Z,55.95
2018-09-10T08:40:22.014Z,55.86
2018-09-10T08:41:29.270Z,54.08
2018-09-10T08:42:34.864Z,54.73
2018-09-10T08:43:41.106Z,54.41
2018-09-10T08:44:46.799Z,53.48
2018-09-10T08:45:53.017Z,53.34
2018-09-10T08:46:59.376Z,54.19
2018-09-10T08:48:05.702Z,53.40
2018-09-10T08:49:11.828Z,52.93
2018-09-10T08:50:18.129Z,52.43
2018-09-10T08:51:23.821Z,51.66
2018-09-10T08:52:29.803Z,52.60
2018-09-10T08:53:35.941Z,51.85
2018-09-10T08:54:42.835Z,52.48
2018-09-10T08:55:49.416Z,53.22
2018-09-10T08:56:55.767Z,53.08
2018-09-10T08:58:02.113Z,52.31
2018-09-10T08:59:08.225Z,53.19
2018-09-10T09:00:14.295Z,51.35
2018-09-10T09:01:20.283Z,52.51
2018-09-10T09:02:26.650Z,51.33
2018-09-10T09:03:32.336Z,51.74
2018-09-10T09:04:38.779Z,51.40
2018-09-10T09:05:45.039Z,51.02
2018-09-10T09:06:51.388Z,51.26
2018-09-10T09:07:57.712Z,51.85
2018-09-10T09:09:03.735Z,51.34
2018-09-10T09:10:10.018Z,51.57
2018-09-10T09:11:16.287Z,49.67
2018-09-10T09:12:22.629Z,49.73
2018-09-10T09:13:28.913Z,49.87
2018-09-10T09:14:34.899Z,49.54
2018-09-10T09:15:41.236Z,49.58
2018-09-10T09:16:47.562Z,49.37
2018-09-10T09:17:53.868Z,50.24
2018-09-10T09:19:00.164Z,50.73
2018-09-10T09:20:06.369Z,48.67
2018-09-10T09:21:12.824Z,48.78
2018-09-10T09:22:19.126Z,47.05
2018-09-10T09:23:25.208Z,48.20
2018-09-10T09:24:31.695Z,47.69
2018-09-10T09:25:37.973Z,47.39
2018-09-10T09:26:44.251Z,46.76
2018-09-10T09:27:50.693Z,47.00
2018-09-10T09:28:57.030Z,47.02
2018-09-10T09:30:03.649Z,46.87
2018-09-10T09:31:10.220Z,46.79
2018-09-10T09:32:16.656Z,46.81
2018-09-10T09:33:22.964Z,47.43
2018-09-10T09:34:29.071Z,47.18
2018-09-10T09:35:35.260Z,47.60
2018-09-10T09:38:31.032Z,44.93
2018-09-10T09:40:04.932Z,45.25
2018-09-10T09:41:40.612Z,47.87
2018-09-10T09:43:05.675Z,46.12
2018-09-10T09:45:49.113Z,44.39
2018-09-10T09:46:55.473Z,44.82
2018-09-10T09:48:01.825Z,44.51
2018-09-10T09:49:08.103Z,44.87
2018-09-10T09:50:14.442Z,45.10
2018-09-10T09:51:20.789Z,45.01
2018-09-10T09:52:27.001Z,44.55
2018-09-10T09:53:33.312Z,44.31
2018-09-10T09:54:39.649Z,44.31
2018-09-10T09:55:46.001Z,44.52
2018-09-10T09:56:52.271Z,44.53
2018-09-10T09:57:58.598Z,45.67
2018-09-10T09:59:04.554Z,44.90
2018-09-10T10:00:10.331Z,44.53
2018-09-10T10:01:16.378Z,44.50
2018-09-10T10:02:22.424Z,45.29
2018-09-10T10:03:28.662Z,45.56
2018-09-10T10:04:35.047Z,46.52
2018-09-10T10:05:41.668Z,46.47
2018-09-10T10:06:47.987Z,45.83
2018-09-10T10:07:54.279Z,45.40
2018-09-10T10:09:00.584Z,46.50
2018-09-10T10:10:07.027Z,45.91
2018-09-10T10:11:13.717Z,45.22
2018-09-10T10:12:20.258Z,45.12
2018-09-10T10:13:26.840Z,45.06
2018-09-10T10:14:33.175Z,45.85
2018-09-10T10:15:39.504Z,45.88
2018-09-10T10:16:45.792Z,45.73
2018-09-10T10:17:52.093Z,45.24
2018-09-10T10:18:58.420Z,45.58
2018-09-10T10:20:04.770Z,46.26
2018-09-10T10:21:11.084Z,45.43
2018-09-10T10:22:17.352Z,45.10
2018-09-10T10:23:24.117Z,44.70
2018-09-10T10:24:30.494Z,44.22
2018-09-10T10:25:36.845Z,44.15
2018-09-10T10:26:43.121Z,44.85
2018-09-10T10:27:49.429Z,43.65
2018-09-10T10:28:55.735Z,44.20
2018-09-10T10:30:02.074Z,43.90
2018-09-10T10:31:08.284Z,44.99
2018-09-10T10:32:14.577Z,44.33
2018-09-10T10:33:20.929Z,44.75
2018-09-10T10:34:27.207Z,44.44
2018-09-10T10:35:33.639Z,44.55
2018-09-10T10:36:39.952Z,44.46
2018-09-10T10:37:46.244Z,44.01
2018-09-10T10:38:52.561Z,43.27
2018-09-10T10:39:58.906Z,42.59
2018-09-10T10:41:05.179Z,42.79
2018-09-10T10:42:11.460Z,42.22
2018-09-10T10:43:17.850Z,42.69
2018-09-10T10:44:24.117Z,42.92
2018-09-10T10:45:30.442Z,42.28
2018-09-10T10:46:36.752Z,42.85
2018-09-10T10:47:42.723Z,41.71
2018-09-10T10:48:48.942Z,42.42
2018-09-10T10:49:55.260Z,43.15
2018-09-10T10:51:01.392Z,42.10
2018-09-10T10:52:07.728Z,42.34
2018-09-10T10:53:14.011Z,42.73
2018-09-10T10:54:20.332Z,42.72
2018-09-10T10:55:26.608Z,43.02
2018-09-10T10:56:33.048Z,42.68
2018-09-10T10:57:39.449Z,42.62
2018-09-10T10:58:45.756Z,42.11
2018-09-10T10:59:51.957Z,42.51
2018-09-10T11:00:58.273Z,41.77
2018-09-10T11:02:04.611Z,42.44
2018-09-10T11:03:11.128Z,42.17
2018-09-10T11:04:17.604Z,42.84
2018-09-10T11:05:24.148Z,42.71
2018-09-10T11:06:30.458Z,42.26
2018-09-10T11:07:36.791Z,41.96
2018-09-10T11:08:43.177Z,41.39
2018-09-10T11:09:49.420Z,41.57
2018-09-10T11:10:55.668Z,41.50
2018-09-10T11:12:02.030Z,41.41
2018-09-10T11:13:08.284Z,41.08
2018-09-10T11:14:14.555Z,41.28
2018-09-10T11:15:20.757Z,40.73
2018-09-10T11:16:27.133Z,40.18
2018-09-10T11:17:33.693Z,40.14
2018-09-10T11:18:39.977Z,39.86
2018-09-10T11:19:46.219Z,40.67
2018-09-10T11:20:52.417Z,39.92
2018-09-10T11:21:58.765Z,39.89
2018-09-10T11:23:04.429Z,40.21
2018-09-10T11:24:10.767Z,39.69
2018-09-10T11:25:16.974Z,39.41
2018-09-10T11:26:23.245Z,39.23
2018-09-10T11:27:29.495Z,39.52
2018-09-10T11:28:35.730Z,39.47
2018-09-10T11:29:42.006Z,39.42
2018-09-10T11:30:48.287Z,39.16
2018-09-10T11:31:54.642Z,39.47
2018-09-10T11:33:00.715Z,40.18
2018-09-10T11:34:06.985Z,39.12
2018-09-10T11:35:13.213Z,38.99
2018-09-10T11:36:19.455Z,39.11
2018-09-10T11:37:25.713Z,38.79
2018-09-10T11:38:31.629Z,38.91
2018-09-10T11:39:37.689Z,38.70
2018-09-10T11:40:43.966Z,38.54
2018-09-10T11:41:50.780Z,38.80
2018-09-10T11:42:57.006Z,39.09
2018-09-10T11:44:03.264Z,39.82
2018-09-10T11:45:09.542Z,39.38
2018-09-10T11:46:15.848Z,39.04
2018-09-10T11:47:21.952Z,39.27
2018-09-10T11:48:28.365Z,38.51
2018-09-10T11:49:34.685Z,38.43
2018-09-10T11:50:40.997Z,38.32
2018-09-10T11:51:47.250Z,39.07
2018-09-10T11:52:53.537Z,38.93
2018-09-10T11:53:59.758Z,38.12
2018-09-10T11:55:05.368Z,38.36
2018-09-10T11:56:11.321Z,37.34
2018-09-10T11:57:17.578Z,38.13
2018-09-10T11:58:23.455Z,36.80
2018-09-10T11:59:29.336Z,36.72
2018-09-10T12:00:35.307Z,37.05
2018-09-10T12:01:41.574Z,36.12
2018-09-10T12:02:47.937Z,36.07
2018-09-10T12:03:54.076Z,36.29
2018-09-10T12:05:00.002Z,36.21
2018-09-10T12:06:05.960Z,36.20
2018-09-10T12:07:11.922Z,34.70
2018-09-10T12:08:18.161Z,34.92
2018-09-10T12:09:24.152Z,35.82
2018-09-10T12:10:30.113Z,34.44
2018-09-10T12:11:36.038Z,34.86
2018-09-10T12:12:42.011Z,34.99
2018-09-10T12:13:47.973Z,35.29
2018-09-10T12:14:53.896Z,35.11
2018-09-10T12:15:59.835Z,35.25
2018-09-10T12:17:04.814Z,35.25
2018-09-10T12:18:10.809Z,34.54
2018-09-10T12:19:16.780Z,35.32
2018-09-10T12:20:22.498Z,34.69
2018-09-10T12:21:28.613Z,34.39
2018-09-10T12:22:34.589Z,34.63
2018-09-10T12:23:40.792Z,34.43
2018-09-10T12:24:46.720Z,34.63
2018-09-10T12:25:52.650Z,34.20
2018-09-10T12:26:58.569Z,34.43
2018-09-10T12:28:04.181Z,34.33
2018-09-10T12:29:10.114Z,34.13
2018-09-10T12:30:16.356Z,34.30
2018-09-10T12:31:22.285Z,35.57
2018-09-10T12:32:28.564Z,35.60
2018-09-10T12:33:34.731Z,35.48
2018-09-10T12:34:40.701Z,34.80
2018-09-10T12:35:46.616Z,34.41
2018-09-10T12:36:52.578Z,33.90
2018-09-10T12:37:58.616Z,33.67
2018-09-10T12:39:03.955Z,34.70
2018-09-10T12:40:09.945Z,34.69
2018-09-10T12:41:17.365Z,35.33
2018-09-10T12:42:23.283Z,35.01
2018-09-10T12:43:29.231Z,34.35
2018-09-10T12:44:35.155Z,34.32
2018-09-10T12:45:41.084Z,34.32
2018-09-10T12:46:47.313Z,34.64
2018-09-10T12:47:53.362Z,34.61
2018-09-10T12:48:59.305Z,34.13
2018-09-10T12:50:04.540Z,34.87
2018-09-10T12:51:10.469Z,34.31
2018-09-10T12:52:16.705Z,34.47
2018-09-10T12:53:22.688Z,34.49
2018-09-10T12:54:28.646Z,33.38
2018-09-10T12:55:34.863Z,33.13
2018-09-10T12:56:40.797Z,33.94
2018-09-10T12:57:46.780Z,33.84
2018-09-10T12:58:52.775Z,32.59
2018-09-10T12:59:58.871Z,33.54
2018-09-10T13:01:04.797Z,33.45
2018-09-10T13:02:10.392Z,33.71
2018-09-10T13:03:16.340Z,33.10
2018-09-10T13:04:22.352Z,33.05
2018-09-10T13:05:28.225Z,33.50
2018-09-10T13:06:34.153Z,33.12
2018-09-10T13:07:39.853Z,33.29
2018-09-10T13:08:45.807Z,33.68
2018-09-10T13:09:52.029Z,33.39
2018-09-10T13:10:58.286Z,33.39
2018-09-10T13:12:04.209Z,33.63
2018-09-10T13:13:10.163Z,32.99
2018-09-10T13:14:17.228Z,33.64
2018-09-10T13:15:23.188Z,33.12
2018-09-10T13:16:29.146Z,32.71
2018-09-10T13:17:35.086Z,32.73
2018-09-10T13:18:41.050Z,33.33
2018-09-10T13:19:46.984Z,33.30
2018-09-10T13:20:52.909Z,33.87
2018-09-10T13:21:58.519Z,33.47
2018-09-10T13:23:04.136Z,33.65
2018-09-10T13:24:10.096Z,34.13
2018-09-10T13:25:16.032Z,34.44
2018-09-10T13:26:22.005Z,33.44
2018-09-10T13:27:27.938Z,33.80
2018-09-10T13:28:33.893Z,33.98
2018-09-10T13:29:39.933Z,34.33
2018-09-10T13:30:46.080Z,33.84
2018-09-10T13:31:52.003Z,33.91
2018-09-10T13:32:57.947Z,34.50
2018-09-10T13:34:03.922Z,34.07
2018-09-10T13:35:09.923Z,34.17
2018-09-10T13:36:15.879Z,34.65
2018-09-10T13:37:21.800Z,34.71
2018-09-10T13:38:27.799Z,34.96
2018-09-10T13:39:34.053Z,35.53
2018-09-10T13:40:40.021Z,34.58
2018-09-10T13:41:45.960Z,34.52
2018-09-10T13:42:51.894Z,34.99
2018-09-10T13:43:57.896Z,35.27
2018-09-10T13:45:03.836Z,35.78
2018-09-10T13:46:09.765Z,35.58
2018-09-10T13:47:15.995Z,35.85
2018-09-10T13:48:21.916Z,35.26
2018-09-10T13:49:27.652Z,35.59
2018-09-10T13:50:33.891Z,35.92
2018-09-10T13:51:39.815Z,35.35
2018-09-10T13:52:45.821Z,35.47
2018-09-10T13:53:51.766Z,35.54
2018-09-10T13:54:57.716Z,35.99
2018-09-10T13:56:03.576Z,36.28
2018-09-10T13:57:09.795Z,36.64
2018-09-10T13:58:15.751Z,35.97
2018-09-10T13:59:21.700Z,36.11
2018-09-10T14:00:27.647Z,36.33
2018-09-10T14:01:34.208Z,36.04
2018-09-10T14:02:40.185Z,36.42
2018-09-10T14:03:46.134Z,36.70
2018-09-10T14:04:52.403Z,36.11
2018-09-10T14:05:58.336Z,36.33
2018-09-10T14:07:04.608Z,36.54
2018-09-10T14:08:10.516Z,35.65
2018-09-10T14:09:16.457Z,35.70
2018-09-10T14:10:22.553Z,35.83
2018-09-10T14:11:28.541Z,36.42
2018-09-10T14:12:34.468Z,36.50
2018-09-10T14:13:40.686Z,36.57
2018-09-10T14:14:46.648Z,36.18
2018-09-10T14:15:52.609Z,35.64
2018-09-10T14:16:58.576Z,36.05
2018-09-10T14:18:04.865Z,36.30